Time;durP1;ratioP1;P1;durP2;ratioP2;P2;SDS_P1;SDS_P2;PMS_P1;PMS_P2;Temp;Humidity;BMP_temperature;BMP_pressure;BME280_temperature;BME280_humidity;BME280_pressure;Samples;Min_cycle;Max_cycle;Signal;HPM_P1;HPM_P2
2022/02/10 00:04:26;;;;;;;5.93;2.38;;;0.20;99.90;;;0.02;82.08;98560.69;172499;28;1166;-76
2022/02/10 00:05:06;;;;;;;7.45;2.38;;;0.20;99.90;;;0.08;80.97;98571.75;173059;28;1245;-75
2022/02/10 00:05:43;;;;;;;7.00;2.38;;;0.20;99.90;;;-0.12;80.70;98548.31;173187;28;1195;-75
2022/02/10 00:06:28;;;;;;;7.29;2.64;;;0.20;99.90;;;-0.03;80.62;98561.84;172346;28;1173;-75
2022/02/10 00:07:16;;;;;;;5.22;2.34;;;0.20;99.90;;;-0.04;80.21;98554.81;172574;28;1181;-75
2022/02/10 00:15:44;;;;;;;5.31;2.46;;;-0.10;99.90;;;-0.29;80.40;98559.06;173003;28;1189;-75
2022/02/10 00:16:34;;;;;;;5.55;2.30;;;-0.10;99.90;;;-0.30;80.69;98560.88;173034;28;1179;-75
2022/02/10 00:17:41;;;;;;;7.00;2.42;;;-0.10;99.90;;;-0.27;80.70;98584.50;170431;29;1183;-75
2022/02/10 00:19:38;;;;;;;5.30;2.33;;;-0.20;99.90;;;-0.33;81.46;98571.66;169023;29;1194;-75
2022/02/10 00:19:48;;;;;;;4.96;2.30;;;-0.20;99.90;;;-0.30;81.53;98567.97;169807;29;1203;-74
2022/02/10 00:20:18;;;;;;;8.39;2.53;;;-0.20;99.90;;;-0.38;81.18;98560.50;171853;28;1200;-75
2022/02/10 00:20:39;;;;;;;6.84;2.67;;;-0.20;99.90;;;-0.33;81.34;98568.16;173152;28;1190;-75
2022/02/10 00:20:50;;;;;;;6.06;2.79;;;-0.20;99.90;;;-0.32;81.40;98572.50;171788;28;1207;-75
2022/02/10 00:21:01;;;;;;;6.41;2.61;;;-0.20;99.90;;;-0.36;81.47;98569.19;172105;28;2707;-75
2022/02/10 00:21:12;;;;;;;6.03;2.27;;;-0.20;99.90;;;-0.67;81.56;98513.78;172146;28;1046;-75
2022/02/10 00:21:33;;;;;;;6.61;2.40;;;-0.20;99.90;;;-0.41;81.32;98552.72;173759;28;1402;-76
2022/02/10 00:21:56;;;;;;;6.59;2.62;;;-0.20;99.90;;;-0.35;81.74;98568.25;172048;28;1195;-76
2022/02/10 00:22:27;;;;;;;6.81;2.66;;;-0.20;99.90;;;-0.38;81.62;98567.59;172090;28;1198;-75
2022/02/10 00:23:31;;;;;;;4.53;2.57;;;-0.30;99.90;;;-0.42;81.48;98561.63;172276;28;2027;-75
2022/02/10 00:34:14;;;;;;;5.69;2.29;;;-0.30;99.90;;;-0.49;80.49;98547.91;172618;28;1167;-75
2022/02/10 00:34:16;;;;;;;7.85;2.59;;;-0.30;99.90;;;-0.48;81.44;98562.00;171903;28;1457;-74
2022/02/10 00:34:31;;;;;;;8.68;2.90;;;-0.30;99.90;;;-0.51;81.43;98559.53;172565;28;1175;-75
2022/02/10 00:34:41;;;;;;;7.97;2.67;;;-0.30;99.90;;;-0.57;81.48;98549.34;171177;28;1208;-77
2022/02/10 00:34:50;;;;;;;7.11;2.36;;;-0.30;99.90;;;-0.54;81.26;98557.06;171738;28;1374;-75
2022/02/10 00:35:01;;;;;;;7.33;2.20;;;-0.40;99.90;;;-0.56;81.39;98554.50;172448;28;1025;-76
2022/02/10 00:35:19;;;;;;;7.56;2.20;;;-0.40;99.90;;;-0.59;81.26;98546.78;172932;28;1423;-75
2022/02/10 00:35:39;;;;;;;4.43;2.00;;;-0.40;99.90;;;-0.50;80.90;98570.03;173878;28;1094;-75
2022/02/10 00:35:54;;;;;;;4.73;2.11;;;-0.30;99.90;;;-0.49;81.05;98565.59;173688;28;1268;-75
2022/02/10 00:36:06;;;;;;;6.56;2.60;;;-0.40;99.90;;;-0.52;80.80;98560.50;172194;28;1481;-75
2022/02/10 00:36:13;;;;;;;8.30;2.70;;;-0.40;99.90;;;-0.54;81.27;98555.28;172255;28;1517;-74
2022/02/10 00:36:24;;;;;;;7.58;2.60;;;-0.40;99.90;;;-0.62;81.05;98535.53;172417;28;1523;-75
2022/02/10 00:36:37;;;;;;;7.00;2.48;;;-0.40;99.90;;;-0.53;81.07;98558.78;172347;28;1351;-75
2022/02/10 00:36:56;;;;;;;6.35;2.42;;;-0.30;99.90;;;-0.50;81.20;98559.44;171748;28;2863;-74
2022/02/10 00:37:13;;;;;;;5.80;2.60;;;-0.40;99.90;;;-0.51;80.67;98559.53;171792;28;1079;-75
2022/02/10 00:37:24;;;;;;;6.07;2.60;;;-0.40;99.90;;;-0.51;80.93;98562.16;172147;28;1346;-75
2022/02/10 00:37:49;;;;;;;6.88;2.67;;;-0.40;99.90;;;-0.66;80.82;98536.66;172443;28;1351;-75
2022/02/10 00:37:59;;;;;;;7.26;2.56;;;-0.40;99.90;;;-0.65;80.45;98541.84;172528;28;1218;-74
2022/02/10 00:38:05;;;;;;;5.53;2.40;;;-0.40;99.90;;;-0.63;80.84;98545.25;172395;28;1332;-75
2022/02/10 00:38:11;;;;;;;5.47;2.38;;;-0.40;99.90;;;-0.51;80.91;98567.47;172392;28;1371;-75
2022/02/10 00:38:19;;;;;;;5.72;2.40;;;-0.40;99.90;;;-0.60;81.15;98550.34;172419;28;1487;-75
2022/02/10 00:38:31;;;;;;;6.77;2.40;;;-0.40;99.90;;;-0.53;81.27;98567.56;172601;28;1415;-76
2022/02/10 00:38:42;;;;;;;6.88;2.39;;;-0.40;99.90;;;-0.52;80.74;98565.78;172515;28;1352;-76
2022/02/10 00:38:57;;;;;;;6.53;2.39;;;-0.40;99.90;;;-0.51;80.81;98563.03;174493;28;1477;-75
2022/02/10 00:40:07;;;;;;;5.38;2.44;;;-0.30;99.90;;;-0.58;81.64;98550.28;172402;28;1332;-75
2022/02/10 00:40:13;;;;;;;4.93;2.26;;;-0.30;99.90;;;-0.45;81.77;98569.75;172599;28;2140;-76
2022/02/10 00:40:20;;;;;;;5.10;2.08;;;-0.30;99.90;;;-0.52;82.13;98556.03;173580;28;1513;-76
2022/02/10 00:40:34;;;;;;;4.58;2.00;;;-0.30;99.90;;;-0.48;81.87;98565.50;174229;28;1129;-75
2022/02/10 00:40:40;;;;;;;5.75;2.05;;;-0.40;99.90;;;-0.55;81.88;98558.88;172426;28;1330;-74
2022/02/10 00:40:46;;;;;;;6.22;2.20;;;-0.30;99.90;;;-0.51;82.20;98557.72;172413;28;1232;-75
2022/02/10 00:40:52;;;;;;;6.28;2.30;;;-0.30;99.90;;;-0.51;82.08;98556.88;171706;28;1075;-76
2022/02/10 00:40:58;;;;;;;6.78;2.40;;;-0.40;99.90;;;-0.58;81.94;98545.84;172428;28;1232;-76
2022/02/10 00:41:04;;;;;;;5.78;2.35;;;-0.30;99.90;;;-0.47;82.02;98566.34;173243;28;1488;-75
2022/02/10 00:41:10;;;;;;;6.13;2.45;;;-0.30;99.90;;;-0.57;81.84;98551.97;174389;28;1336;-76
2022/02/10 00:41:16;;;;;;;5.90;2.40;;;-0.40;99.90;;;-0.50;81.81;98559.44;173112;28;1360;-75
2022/02/10 00:41:22;;;;;;;6.18;2.40;;;-0.30;99.90;;;-0.61;82.13;98540.72;172697;28;1261;-76
2022/02/10 00:41:27;;;;;;;6.03;2.28;;;-0.30;99.90;;;-0.45;81.92;98569.75;172478;28;1251;-75
2022/02/10 00:41:33;;;;;;;5.65;2.22;;;-0.30;99.90;;;-0.52;82.23;98560.50;172686;28;1205;-75
2022/02/10 00:41:39;;;;;;;5.25;2.08;;;-0.30;99.90;;;-0.51;81.88;98551.59;172391;28;978;-75
2022/02/10 00:41:45;;;;;;;5.20;2.15;;;-0.30;99.90;;;-0.52;81.44;98561.31;172451;28;1429;-76
2022/02/10 00:41:51;;;;;;;5.50;2.30;;;-0.40;99.90;;;-0.47;81.44;98569.00;172554;28;1022;-76
2022/02/10 00:41:57;;;;;;;5.86;2.40;;;-0.30;99.90;;;-0.63;81.19;98547.06;172356;28;1405;-75
2022/02/10 00:42:04;;;;;;;6.32;2.60;;;-0.40;99.90;;;-0.55;81.07;98555.38;172637;28;1357;-75
2022/02/10 00:42:10;;;;;;;5.73;2.60;;;-0.40;99.90;;;-0.63;81.23;98547.06;173835;28;1533;-76
2022/02/10 00:42:16;;;;;;;6.50;2.65;;;-0.40;99.90;;;-0.62;81.21;98546.94;173769;28;1243;-75
2022/02/10 00:42:22;;;;;;;6.53;2.63;;;-0.40;99.90;;;-0.88;81.18;98505.34;172544;28;872;-75
2022/02/10 00:42:28;;;;;;;6.32;2.70;;;-0.40;99.90;;;-0.61;81.35;98550.44;171729;28;1403;-76
2022/02/10 00:42:34;;;;;;;5.88;2.63;;;-0.40;99.90;;;-0.52;81.38;98563.13;173892;28;1227;-75
2022/02/10 00:42:40;;;;;;;6.23;2.70;;;-0.40;99.90;;;-0.68;81.38;98549.13;172326;28;1350;-75
2022/02/10 00:42:47;;;;;;;5.90;2.77;;;-0.40;99.90;;;-0.70;81.31;98540.41;171756;28;1301;-75
2022/02/10 00:42:54;;;;;;;5.40;2.60;;;-0.40;99.90;;;-0.54;81.43;98565.00;173330;28;1482;-75
2022/02/10 00:43:03;;;;;;;5.30;2.60;;;-0.40;99.90;;;-0.56;81.55;98566.88;172991;28;1458;-75
2022/02/10 00:43:10;;;;;;;5.93;2.54;;;-0.40;99.90;;;-0.58;81.40;98560.84;173777;28;1150;-76
2022/02/10 00:43:16;;;;;;;5.84;2.38;;;-0.40;99.90;;;-0.62;81.36;98554.88;173714;28;1445;-76
2022/02/10 00:43:22;;;;;;;5.55;2.30;;;-0.40;99.90;;;-0.61;81.60;98556.59;173157;28;1044;-75
2022/02/10 00:43:28;;;;;;;5.72;2.30;;;-0.40;99.90;;;-0.73;80.93;98541.47;174407;28;1432;-74
2022/02/10 00:43:34;;;;;;;6.22;2.35;;;-0.40;99.90;;;-0.65;81.01;98552.44;172363;28;848;-76
2022/02/10 00:43:39;;;;;;;5.75;2.30;;;-0.40;99.90;;;-0.68;81.30;98543.84;172978;28;1521;-75
2022/02/10 00:43:45;;;;;;;5.53;2.13;;;-0.40;99.90;;;-0.75;81.35;98534.56;172758;28;1473;-75
2022/02/10 00:43:51;;;;;;;5.78;2.10;;;-0.40;99.90;;;-0.54;81.23;98567.66;171755;28;1375;-75
2022/02/10 00:43:57;;;;;;;6.15;2.13;;;-0.40;99.90;;;-0.65;81.05;98548.94;171681;28;1325;-75
2022/02/10 00:44:03;;;;;;;5.65;2.08;;;-0.40;99.90;;;-0.54;81.10;98572.94;172384;28;1228;-75
2022/02/10 00:44:09;;;;;;;5.35;2.13;;;-0.40;99.90;;;-0.66;80.84;98549.88;171746;28;1128;-75
2022/02/10 00:44:15;;;;;;;5.38;2.33;;;-0.40;99.90;;;-0.59;81.09;98564.44;172438;28;1238;-75
2022/02/10 00:44:21;;;;;;;5.45;2.47;;;-0.40;99.90;;;-0.64;80.82;98548.84;172501;28;1465;-74
2022/02/10 00:44:27;;;;;;;5.20;2.38;;;-0.40;99.90;;;-0.63;80.88;98552.34;172265;28;1396;-75
2022/02/10 00:44:33;;;;;;;4.82;2.30;;;-0.40;99.90;;;-0.67;80.78;98545.50;173105;28;1424;-76
2022/02/10 00:44:39;;;;;;;4.88;2.25;;;-0.40;99.90;;;-0.49;80.67;98574.38;172812;28;1381;-75
2022/02/10 00:44:45;;;;;;;4.85;2.10;;;-0.40;99.90;;;-0.68;80.78;98533.25;171703;28;1628;-75
2022/02/10 00:44:51;;;;;;;5.07;2.20;;;-0.40;99.90;;;-0.51;80.61;98567.47;173003;28;1569;-75
2022/02/10 00:44:57;;;;;;;4.85;2.25;;;-0.40;99.90;;;-0.64;80.41;98545.34;172379;28;1459;-75
2022/02/10 00:45:05;;;;;;;5.50;2.40;;;-0.40;99.90;;;-0.67;80.33;98542.88;171974;28;1589;-75
2022/02/10 00:45:11;;;;;;;5.34;2.36;;;-0.40;99.90;;;-0.65;80.54;98541.84;172271;28;1744;-75
2022/02/10 00:45:17;;;;;;;6.06;2.42;;;-0.40;99.90;;;-0.59;80.47;98559.16;172745;28;1493;-75
2022/02/10 00:45:26;;;;;;;8.00;2.43;;;-0.40;99.90;;;-0.87;80.46;98509.69;173109;28;1549;-75
2022/02/10 00:45:34;;;;;;;8.16;2.50;;;-0.40;99.90;;;-0.57;80.51;98557.28;172413;28;1132;-76
2022/02/10 00:45:40;;;;;;;8.17;2.50;;;-0.40;99.90;;;-0.61;80.24;98559.22;171770;28;1378;-76
2022/02/10 00:45:47;;;;;;;8.30;2.40;;;-0.40;99.90;;;-0.59;80.30;98557.34;172844;28;902;-75
2022/02/10 00:45:53;;;;;;;5.30;2.20;;;-0.40;99.90;;;-0.55;80.35;98566.81;173254;28;887;-75
2022/02/10 00:45:59;;;;;;;5.47;2.07;;;-0.40;99.90;;;-0.55;80.66;98565.94;172998;28;1261;-75
2022/02/10 00:46:07;;;;;;;5.22;1.95;;;-0.40;99.90;;;-0.51;80.26;98564.81;172351;28;1166;-75
2022/02/10 00:46:13;;;;;;;5.32;1.98;;;-0.40;99.90;;;-0.72;80.81;98529.06;172867;28;1181;-75
2022/02/10 00:46:19;;;;;;;6.40;2.20;;;-0.40;99.90;;;-0.57;80.72;98558.09;172500;28;1283;-76
2022/02/10 00:46:25;;;;;;;7.84;2.30;;;-0.40;99.90;;;-0.49;80.91;98568.22;172556;28;1418;-75
2022/02/10 00:46:31;;;;;;;8.23;2.45;;;-0.40;99.90;;;-0.63;80.99;98547.91;173089;28;1230;-75
2022/02/10 00:46:37;;;;;;;8.57;2.57;;;-0.40;99.90;;;-0.51;80.51;98570.09;171730;28;1289;-75
2022/02/10 00:46:43;;;;;;;8.38;2.53;;;-0.30;99.90;;;-0.58;80.70;98552.91;172466;28;1975;-75
2022/02/10 00:46:49;;;;;;;6.93;2.53;;;-0.40;99.90;;;-0.58;80.78;98551.13;171598;28;1380;-76
2022/02/10 00:46:55;;;;;;;6.20;2.60;;;-0.40;99.90;;;-0.57;80.85;98558.09;173506;28;1284;-75
2022/02/10 00:47:02;;;;;;;5.78;2.50;;;-0.30;99.90;;;-0.60;80.50;98544.22;173759;28;1347;-75
2022/02/10 00:47:08;;;;;;;5.53;2.42;;;-0.40;99.90;;;-0.62;80.56;98541.66;173412;28;1377;-76
2022/02/10 00:47:13;;;;;;;5.43;2.60;;;-0.40;99.90;;;-0.49;80.53;98565.59;173877;28;1328;-74
2022/02/10 00:47:19;;;;;;;5.22;2.45;;;-0.30;99.90;;;-0.52;80.44;98560.50;173568;28;1260;-76
2022/02/10 00:47:28;;;;;;;5.25;2.30;;;-0.30;99.90;;;-0.62;80.26;98546.94;173178;28;964;-74
2022/02/10 00:47:48;;;;;;;5.60;2.38;;;-0.30;99.90;;;-0.48;80.42;98565.50;173675;28;1495;-76
2022/02/10 00:47:57;;;;;;;5.60;2.21;;;-0.30;99.90;;;-0.49;80.23;98560.28;172334;28;3211;-75
2022/02/10 00:48:09;;;;;;;5.50;2.10;;;-0.30;99.90;;;-0.65;80.61;98530.41;172467;28;1430;-76
2022/02/10 00:48:16;;;;;;;5.45;2.21;;;-0.40;99.90;;;-0.88;80.71;98498.28;172501;28;1214;-75
2022/02/10 00:48:23;;;;;;;5.87;2.60;;;-0.30;99.90;;;-0.51;80.68;98565.66;172288;28;1308;-75
2022/02/10 00:48:30;;;;;;;5.93;2.73;;;-0.30;99.90;;;-0.67;80.86;98537.59;171790;28;820;-75
2022/02/10 00:48:36;;;;;;;5.50;2.70;;;-0.40;99.90;;;-0.91;80.73;98509.03;171847;28;1305;-75
2022/02/10 00:48:42;;;;;;;5.70;2.70;;;-0.30;99.90;;;-0.70;80.74;98530.69;172362;28;1281;-75
2022/02/10 00:48:48;;;;;;;5.53;2.58;;;-0.40;99.90;;;-0.66;80.99;98539.28;172441;28;1248;-76
2022/02/10 00:48:54;;;;;;;4.90;2.17;;;-0.40;99.90;;;-0.58;81.21;98553.78;171609;28;1308;-75
2022/02/10 00:49:00;;;;;;;4.60;2.13;;;-0.40;99.90;;;-0.56;81.07;98558.94;171753;28;1450;-75
2022/02/10 00:49:07;;;;;;;6.47;2.10;;;-0.40;99.90;;;-0.56;81.07;98556.31;172298;28;1539;-75
2022/02/10 00:49:14;;;;;;;7.27;2.17;;;-0.40;99.90;;;-0.72;80.82;98524.63;171825;28;1696;-76
2022/02/10 00:49:19;;;;;;;7.25;2.20;;;-0.30;99.90;;;-0.64;80.61;98537.41;172759;28;1271;-74
2022/02/10 00:49:26;;;;;;;7.63;2.40;;;-0.40;99.90;;;-0.57;80.80;98546.69;173793;28;1350;-75
2022/02/10 00:49:32;;;;;;;7.57;2.55;;;-0.40;99.90;;;-0.59;80.66;98549.41;173212;28;1382;-75
2022/02/10 00:49:38;;;;;;;5.92;2.50;;;-0.40;99.90;;;-0.61;81.04;98550.44;172925;28;1461;-75
2022/02/10 00:49:46;;;;;;;5.73;2.60;;;-0.40;99.90;;;-0.55;80.60;98560.66;172708;28;1507;-76
2022/02/10 00:49:52;;;;;;;6.53;2.60;;;-0.30;99.90;;;-0.61;81.39;98542.50;172927;28;1326;-75
2022/02/10 00:49:59;;;;;;;6.17;2.43;;;-0.40;99.90;;;-0.52;81.38;98557.84;173055;28;948;-76
2022/02/10 00:50:07;;;;;;;6.36;2.48;;;-0.30;99.90;;;-0.56;81.29;98554.50;172435;28;1230;-76
2022/02/10 00:50:13;;;;;;;5.83;2.43;;;-0.40;99.90;;;-0.62;81.28;98543.47;172274;28;1342;-75
2022/02/10 00:50:23;;;;;;;4.93;2.17;;;-0.30;99.90;;;-0.67;80.93;98538.44;173779;28;1302;-75
2022/02/10 00:50:31;;;;;;;4.54;2.17;;;-0.40;99.90;;;-0.70;80.52;98532.50;174275;28;1517;-74
2022/02/10 00:50:44;;;;;;;4.55;2.02;;;-0.40;99.90;;;-0.69;80.30;98531.56;172541;28;1585;-75
2022/02/10 00:50:51;;;;;;;5.44;2.11;;;-0.40;99.90;;;-0.55;80.32;98565.94;172993;28;1188;-76
2022/02/10 00:50:58;;;;;;;5.67;2.10;;;-0.40;99.90;;;-0.64;80.50;98542.72;173904;28;971;-75
2022/02/10 00:51:06;;;;;;;5.60;2.10;;;-0.40;99.90;;;-0.56;80.38;98562.44;173041;28;1349;-75
2022/02/10 00:51:12;;;;;;;4.98;2.10;;;-0.40;99.90;;;-0.58;80.59;98558.22;173741;28;1464;-76
2022/02/10 00:51:19;;;;;;;4.70;2.17;;;-0.40;99.90;;;-0.63;80.51;98547.06;173411;28;1482;-75
2022/02/10 00:51:25;;;;;;;5.02;2.28;;;-0.40;99.90;;;-0.60;80.93;98558.28;172457;28;1470;-75
2022/02/10 00:51:31;;;;;;;5.65;2.30;;;-0.40;99.90;;;-0.73;80.96;98533.53;173362;28;1004;-75
2022/02/10 00:51:37;;;;;;;5.50;2.35;;;-0.40;99.90;;;-0.92;80.92;98502.03;172490;28;970;-75
2022/02/10 00:51:43;;;;;;;5.32;2.35;;;-0.40;99.90;;;-0.71;80.61;98533.44;172481;28;1341;-75
2022/02/10 00:51:50;;;;;;;5.05;2.30;;;-0.40;99.90;;;-0.63;80.38;98550.56;174464;28;1356;-75
2022/02/10 00:51:56;;;;;;;4.83;2.30;;;-0.40;99.90;;;-0.56;80.21;98564.25;173784;28;1310;-74
2022/02/10 00:52:05;;;;;;;4.60;2.25;;;-0.40;99.90;;;-0.65;80.62;98543.63;173040;28;1542;-76
2022/02/10 00:52:11;;;;;;;4.59;2.09;;;-0.40;99.90;;;-0.60;80.57;98558.28;173231;28;1327;-75
2022/02/10 00:52:16;;;;;;;5.03;2.20;;;-0.40;99.90;;;-0.71;80.47;98534.28;172442;28;1362;-75
2022/02/10 00:52:22;;;;;;;4.95;2.10;;;-0.40;99.90;;;-0.58;80.49;98563.50;172422;28;1326;-75
2022/02/10 00:52:28;;;;;;;5.00;2.10;;;-0.40;99.90;;;-0.58;80.64;98559.06;173627;28;1303;-74
2022/02/10 00:52:40;;;;;;;5.30;2.08;;;-0.40;99.90;;;-0.66;80.22;98549.88;172981;28;1425;-75
2022/02/10 00:52:48;;;;;;;7.01;2.16;;;-0.40;99.90;;;-0.65;80.61;98552.44;171856;28;1206;-74
2022/02/10 00:53:02;;;;;;;7.90;2.20;;;-0.40;99.90;;;-0.71;81.24;98544.00;173559;28;1346;-75
2022/02/10 00:53:26;;;;;;;7.56;2.10;;;-0.40;99.90;;;-0.54;81.17;98573.78;173157;28;1486;-75
2022/02/10 00:53:37;;;;;;;6.31;1.94;;;-0.40;99.90;;;-0.57;80.82;98559.91;172160;28;1433;-75
2022/02/10 00:53:45;;;;;;;6.24;2.10;;;-0.40;99.90;;;-0.62;80.90;98556.69;171610;28;1612;-76
2022/02/10 00:53:52;;;;;;;5.33;2.00;;;-0.40;99.90;;;-0.60;81.15;98562.72;172523;28;947;-75
2022/02/10 00:53:58;;;;;;;5.32;2.04;;;-0.40;99.90;;;-0.59;81.49;98567.94;172457;28;1510;-75
2022/02/10 00:54:04;;;;;;;5.45;2.10;;;-0.40;99.90;;;-0.58;81.51;98571.44;173775;28;1339;-75
2022/02/10 00:54:11;;;;;;;5.93;2.17;;;-0.40;99.90;;;-0.71;81.64;98544.84;173310;28;1373;-76
2022/02/10 00:54:24;;;;;;;6.10;2.20;;;-0.40;99.90;;;-0.59;81.32;98562.66;173191;28;991;-75
2022/02/10 00:54:30;;;;;;;5.88;2.36;;;-0.40;99.90;;;-0.72;81.51;98547.59;172833;28;1675;-74
2022/02/10 00:54:38;;;;;;;5.23;2.40;;;-0.40;99.90;;;-0.56;81.27;98575.66;173211;28;1302;-76
2022/02/10 00:54:44;;;;;;;5.00;2.50;;;-0.40;99.90;;;-0.73;81.62;98540.63;173771;28;1223;-76
2022/02/10 00:54:50;;;;;;;4.75;2.50;;;-0.40;99.90;;;-0.93;81.46;98513.56;172496;28;1229;-76
2022/02/10 00:54:56;;;;;;;4.77;2.50;;;-0.40;99.90;;;-0.60;81.79;98565.38;173059;28;1327;-75
2022/02/10 00:55:02;;;;;;;4.43;2.47;;;-0.40;99.90;;;-0.67;81.64;98556.09;174230;28;1345;-74
2022/02/10 00:55:09;;;;;;;4.77;2.37;;;-0.40;99.90;;;-0.58;81.58;98571.44;172478;28;887;-76
2022/02/10 00:55:17;;;;;;;4.87;2.17;;;-0.40;99.90;;;-0.59;81.80;98567.09;173091;28;1282;-75
2022/02/10 00:55:27;;;;;;;4.83;2.11;;;-0.40;99.90;;;-0.52;81.90;98579.00;173130;28;1495;-75
2022/02/10 00:55:36;;;;;;;5.81;2.07;;;-0.40;99.90;;;-0.71;81.47;98547.50;171698;28;2942;-75
2022/02/10 00:55:44;;;;;;;6.49;2.19;;;-0.40;99.90;;;-0.61;81.79;98561.88;171669;28;1034;-76
2022/02/10 00:55:50;;;;;;;6.99;2.26;;;-0.40;99.90;;;-1.02;82.04;98495.59;171745;28;1348;-75
2022/02/10 00:55:56;;;;;;;7.00;2.30;;;-0.40;99.90;;;-0.70;82.31;98543.91;171707;28;1213;-75
2022/02/10 00:56:05;;;;;;;7.40;2.33;;;-0.40;99.90;;;-0.54;82.31;98567.66;173140;28;1302;-74
2022/02/10 00:56:13;;;;;;;6.46;2.20;;;-0.40;99.90;;;-0.49;82.18;98577.03;171154;28;1959;-75
2022/02/10 00:56:20;;;;;;;5.93;2.20;;;-0.40;99.90;;;-0.49;82.75;98571.72;171685;28;1594;-76
2022/02/10 00:56:26;;;;;;;5.43;2.03;;;-0.40;99.90;;;-0.64;82.83;98548.00;171662;28;1526;-75
2022/02/10 00:56:32;;;;;;;3.65;1.83;;;-0.40;99.90;;;-0.51;82.79;98564.81;172709;28;1478;-75
2022/02/10 00:56:38;;;;;;;3.87;1.87;;;-0.40;99.90;;;-0.76;82.40;98525.78;172981;28;1584;-75
2022/02/10 00:56:44;;;;;;;4.15;1.88;;;-0.40;99.90;;;-0.47;82.94;98574.28;173906;28;895;-75
2022/02/10 00:56:52;;;;;;;4.23;1.80;;;-0.30;99.90;;;-0.54;82.90;98563.22;173079;28;1044;-75
2022/02/10 00:56:58;;;;;;;5.60;1.92;;;-0.30;99.90;;;-0.50;83.08;98564.72;172430;28;1530;-75
2022/02/10 00:57:07;;;;;;;6.57;2.00;;;-0.30;99.90;;;-0.43;83.46;98570.50;174364;28;1318;-75
2022/02/10 00:57:13;;;;;;;6.25;1.80;;;-0.30;99.90;;;-0.54;83.48;98555.28;173013;28;1190;-75
2022/02/10 00:57:21;;;;;;;6.34;1.80;;;-0.30;99.90;;;-0.47;83.80;98563.72;173564;28;957;-75
2022/02/10 00:57:27;;;;;;;5.00;1.80;;;-0.30;99.90;;;-0.47;83.47;98558.41;174405;28;1535;-75
2022/02/10 00:57:33;;;;;;;4.23;1.80;;;-0.30;99.90;;;-0.36;83.67;98579.75;173633;28;1224;-75
2022/02/10 00:57:39;;;;;;;4.50;1.85;;;-0.30;99.90;;;-0.38;83.51;98579.03;172325;28;1442;-75
2022/02/10 00:57:45;;;;;;;4.45;1.90;;;-0.30;99.90;;;-0.43;83.48;98568.72;174128;28;1540;-76
2022/02/10 00:57:51;;;;;;;4.55;2.03;;;-0.30;99.90;;;-0.46;83.22;98560.94;172428;28;1231;-74
2022/02/10 00:57:58;;;;;;;4.82;2.10;;;-0.30;99.90;;;-0.54;83.28;98546.50;172330;28;1243;-75
2022/02/10 00:58:08;;;;;;;5.30;2.10;;;-0.30;99.90;;;-0.39;83.23;98569.38;171733;28;1090;-75
2022/02/10 00:58:30;;;;;;;4.89;2.06;;;-0.30;99.90;;;-0.49;83.07;98555.00;172999;28;2053;-76
2022/02/10 00:58:39;;;;;;;4.28;1.98;;;-0.30;99.90;;;-0.31;83.28;98582.16;172901;28;1396;-75
2022/02/10 00:58:55;;;;;;;5.25;2.10;;;-0.20;99.90;;;-0.45;83.41;98562.66;173162;28;1107;-75
2022/02/10 01:00:07;;;;;;;5.47;1.90;;;-0.20;99.90;;;-0.37;84.06;98564.00;172341;28;1633;-75
2022/02/10 01:02:32;;;;;;;5.46;1.74;;;-0.20;99.90;;;-0.28;83.25;98584.59;172284;28;1180;-74
2022/02/10 01:07:03;;;;;;;4.72;1.85;;;-0.20;99.90;;;-0.32;83.93;98586.59;172541;28;1310;-76
2022/02/10 01:07:04;;;;;;;5.88;1.94;;;-0.30;99.90;;;-0.40;82.89;98585.31;172156;28;2019;-75
2022/02/10 01:10:25;;;;;;;6.29;1.88;;;-0.30;99.90;;;-0.51;82.63;98575.38;171459;28;1804;-75
2022/02/10 01:10:51;;;;;;;4.15;1.95;;;-0.40;99.90;;;-0.59;82.64;98580.31;172524;28;1174;-75
2022/02/10 01:12:44;;;;;;;4.76;1.91;;;-0.50;99.90;;;-0.60;81.68;98582.09;170426;29;1180;-74
2022/02/10 01:14:19;;;;;;;4.75;2.30;;;-0.50;99.90;;;-0.73;81.87;98580.28;169173;29;1318;-75
2022/02/10 01:29:33;;;;;;;3.91;1.79;;;-0.70;99.90;;;-0.88;82.22;98587.28;172984;28;1193;-75
2022/02/10 01:29:43;;;;;;;7.46;2.10;;;-0.70;99.90;;;-0.94;82.06;98577.94;172587;28;1161;-75
2022/02/10 01:29:49;;;;;;;4.84;2.09;;;-0.80;99.90;;;-0.90;82.39;98587.41;174018;28;1176;-74
2022/02/10 01:29:55;;;;;;;3.65;1.98;;;-0.80;99.90;;;-0.97;82.01;98578.09;173500;28;911;-76
2022/02/10 01:30:01;;;;;;;3.53;1.85;;;-0.80;99.90;;;-0.99;82.15;98566.78;173240;28;1251;-75
2022/02/10 01:30:08;;;;;;;4.47;1.90;;;-0.80;99.90;;;-0.93;82.26;98582.28;173628;28;1675;-75
2022/02/10 01:30:15;;;;;;;4.90;1.93;;;-0.80;99.90;;;-0.93;82.36;98573.50;172578;28;1402;-74
2022/02/10 01:30:21;;;;;;;5.98;2.00;;;-0.80;99.90;;;-0.93;82.72;98578.78;172256;28;1589;-74
2022/02/10 01:30:27;;;;;;;5.87;2.03;;;-0.80;99.90;;;-0.91;82.47;98585.69;172573;28;1293;-75
2022/02/10 01:30:33;;;;;;;5.97;2.08;;;-0.80;99.90;;;-1.00;82.64;98570.38;171497;28;1356;-74
2022/02/10 01:30:40;;;;;;;6.30;2.20;;;-0.80;99.90;;;-1.08;82.36;98556.72;173262;28;1609;-75
2022/02/10 01:30:47;;;;;;;5.20;2.10;;;-0.80;99.90;;;-0.98;82.56;98573.75;173425;28;1136;-75
2022/02/10 01:30:53;;;;;;;5.00;2.16;;;-0.80;99.90;;;-1.13;82.75;98542.94;173514;28;975;-75
2022/02/10 01:30:59;;;;;;;5.57;2.10;;;-0.70;99.90;;;-1.10;82.35;98553.34;172413;28;1066;-76
2022/02/10 01:31:07;;;;;;;4.73;2.17;;;-0.80;99.90;;;-0.99;82.94;98573.88;172589;28;1518;-75
2022/02/10 01:31:13;;;;;;;4.20;2.00;;;-0.80;99.90;;;-1.04;82.94;98562.72;172759;28;1438;-75
2022/02/10 01:31:19;;;;;;;4.77;2.10;;;-0.80;99.90;;;-0.95;83.05;98578.03;173245;28;1398;-75
2022/02/10 01:31:26;;;;;;;4.28;2.03;;;-0.80;99.90;;;-1.00;83.12;98570.38;173675;28;1165;-75
2022/02/10 01:31:33;;;;;;;4.06;1.92;;;-0.80;99.90;;;-0.98;83.19;98572.91;171803;28;1536;-74
2022/02/10 01:31:40;;;;;;;4.33;2.10;;;-0.80;99.90;;;-1.09;83.52;98560.31;173032;28;1344;-76
2022/02/10 01:31:46;;;;;;;4.32;2.16;;;-0.70;99.90;;;-1.04;83.46;98560.94;173193;28;1345;-75
2022/02/10 01:31:53;;;;;;;4.38;2.10;;;-0.70;99.90;;;-1.29;83.67;98527.13;173032;28;1079;-76
2022/02/10 01:31:59;;;;;;;4.50;2.20;;;-0.70;99.90;;;-0.93;83.70;98581.41;172475;28;1315;-74
2022/02/10 01:32:06;;;;;;;4.32;2.13;;;-0.80;99.90;;;-1.24;83.63;98523.38;173880;28;1211;-75
2022/02/10 01:32:13;;;;;;;5.02;2.10;;;-0.70;99.90;;;-1.36;83.51;98512.59;172649;28;839;-74
2022/02/10 01:32:19;;;;;;;5.26;2.08;;;-0.70;99.90;;;-0.99;83.52;98572.09;173052;28;1523;-75
2022/02/10 01:32:27;;;;;;;5.55;2.10;;;-0.80;99.90;;;-0.89;83.38;98590.91;172595;28;1671;-74
2022/02/10 01:32:32;;;;;;;5.80;1.93;;;-0.80;99.90;;;-0.94;83.58;98585.03;171598;28;970;-75
2022/02/10 01:32:42;;;;;;;5.03;1.90;;;-0.80;99.90;;;-0.98;83.21;98571.13;173924;28;1449;-76
2022/02/10 01:32:54;;;;;;;4.89;1.90;;;-0.80;99.90;;;-1.18;83.41;98544.16;173616;28;1116;-74
2022/02/10 01:33:03;;;;;;;4.72;1.93;;;-0.80;99.90;;;-1.03;83.30;98570.53;173574;28;1466;-76
2022/02/10 01:33:11;;;;;;;5.43;2.33;;;-0.80;99.90;;;-0.99;83.70;98572.09;173220;28;1259;-75
2022/02/10 01:33:18;;;;;;;6.00;2.32;;;-0.80;99.90;;;-0.96;83.76;98577.19;173320;28;1596;-75
2022/02/10 01:33:24;;;;;;;6.42;2.46;;;-0.80;99.90;;;-1.02;83.92;98566.09;173990;28;883;-75
2022/02/10 01:33:32;;;;;;;5.57;2.40;;;-0.70;99.90;;;-1.00;83.96;98570.38;173029;28;1318;-75
2022/02/10 01:33:40;;;;;;;4.67;2.03;;;-0.80;99.90;;;-1.26;83.77;98536.69;172388;28;1322;-75
2022/02/10 01:33:47;;;;;;;4.45;2.10;;;-0.80;99.90;;;-1.00;83.68;98565.09;171990;28;978;-75
2022/02/10 01:33:53;;;;;;;4.03;1.98;;;-0.80;99.90;;;-0.94;83.75;98580.59;172298;28;1567;-75
2022/02/10 01:33:58;;;;;;;4.15;1.95;;;-0.80;99.90;;;-0.93;83.79;98581.41;173306;28;910;-74
2022/02/10 01:34:04;;;;;;;4.82;2.03;;;-0.80;99.90;;;-0.95;83.99;98578.88;174005;28;804;-76
2022/02/10 01:34:10;;;;;;;6.13;2.17;;;-0.80;99.90;;;-0.92;83.43;98583.97;172626;28;1215;-75
2022/02/10 01:34:16;;;;;;;6.13;2.10;;;-0.80;99.90;;;-0.99;83.48;98571.22;172505;28;1470;-76
2022/02/10 01:34:23;;;;;;;6.07;2.08;;;-0.80;99.90;;;-0.99;83.68;98577.38;174231;28;1071;-75
2022/02/10 01:34:31;;;;;;;6.07;2.13;;;-0.80;99.90;;;-1.09;83.61;98560.31;171944;28;1485;-75
2022/02/10 01:34:47;;;;;;;5.43;2.10;;;-0.80;99.90;;;-1.01;83.26;98576.59;172075;28;1087;-75
2022/02/10 01:34:53;;;;;;;4.65;2.04;;;-0.80;99.90;;;-1.10;83.23;98563.91;173273;28;1376;-75
2022/02/10 01:34:59;;;;;;;5.30;2.20;;;-0.80;99.90;;;-1.27;83.33;98529.69;173136;28;1478;-75
2022/02/10 01:35:09;;;;;;;5.63;2.23;;;-0.80;99.90;;;-1.03;83.39;98575.81;173382;28;909;-75
2022/02/10 01:35:20;;;;;;;6.77;2.17;;;-0.80;99.90;;;-1.16;83.30;98551.06;172759;28;1434;-75
2022/02/10 01:35:28;;;;;;;6.58;2.08;;;-0.80;99.90;;;-1.07;83.52;98566.38;171387;28;1334;-74